createdAt,value
2023-04-22T05:29:19.788Z,69.70
2023-04-22T05:35:10.724Z,13.20
2023-04-22T05:37:39.443Z,12.40
2023-04-22T05:40:08.956Z,13.00
2023-04-22T05:42:37.105Z,10.90
2023-04-22T05:45:05.718Z,15.10
2023-04-22T05:47:33.845Z,14.10
2023-04-22T05:50:02.929Z,13.10
2023-04-22T05:52:39.692Z,15.80
2023-04-22T05:55:14.190Z,14.80
2023-04-22T05:57:42.295Z,12.50
2023-04-22T06:00:19.666Z,12.10
2023-04-22T06:02:50.766Z,13.90
2023-04-22T06:05:19.373Z,11.30
2023-04-22T06:07:47.626Z,16.50
2023-04-22T06:10:15.697Z,15.50
2023-04-22T06:12:44.266Z,12.60
2023-04-22T06:15:12.302Z,12.30
2023-04-22T06:17:41.061Z,13.70
2023-04-22T06:20:09.775Z,13.80
2023-04-22T06:22:37.789Z,14.10
2023-04-22T06:25:06.351Z,12.50
2023-04-22T06:27:34.407Z,15.10
2023-04-22T06:30:03.072Z,13.70
2023-04-22T06:32:32.203Z,15.80
2023-04-22T06:35:38.485Z,15.80
2023-04-22T06:41:50.553Z,15.80
2023-04-22T06:51:59.196Z,15.80
2023-04-22T07:01:49.471Z,15.80
2023-04-22T07:09:24.517Z,15.80
2023-04-22T07:16:06.240Z,15.80
2023-04-22T07:25:55.947Z,15.80
2023-04-22T07:36:12.893Z,15.80
2023-04-22T07:46:02.488Z,15.80
2023-04-22T07:53:34.949Z,15.80
2023-04-22T08:01:32.737Z,15.80
2023-04-22T08:11:22.384Z,15.80
2023-04-22T08:21:39.093Z,15.80
2023-04-22T08:31:28.905Z,15.80
2023-04-22T08:39:03.711Z,15.80
2023-04-22T08:45:44.807Z,15.80
2023-04-22T08:55:34.656Z,15.80
2023-04-22T09:05:52.172Z,15.80
2023-04-22T09:15:41.825Z,15.80
2023-04-22T09:23:16.550Z,15.80
2023-04-22T09:29:57.174Z,15.80
2023-04-22T09:39:49.698Z,15.80
2023-04-22T09:54:12.566Z,23.30
2023-04-22T09:56:50.669Z,64.70
2023-04-22T09:59:26.074Z,73.60
2023-04-22T10:02:00.296Z,128.30
2023-04-22T10:04:28.974Z,136.00
2023-04-22T10:06:57.192Z,159.60
2023-04-22T10:12:50.297Z,10.60
2023-04-22T10:15:18.291Z,10.30
2023-04-22T10:17:46.815Z,8.10
2023-04-22T10:20:16.707Z,9.40
2023-04-22T10:22:44.570Z,6.00
2023-04-22T10:25:25.868Z,7.80
2023-04-22T10:28:14.634Z,8.30
2023-04-22T10:30:42.899Z,8.40
2023-04-22T10:33:31.812Z,9.90
2023-04-22T10:36:11.023Z,7.50
2023-04-22T10:38:40.565Z,7.20
2023-04-22T10:41:15.504Z,9.80
2023-04-22T10:43:45.362Z,10.10
2023-04-22T10:46:54.883Z,8.80
2023-04-22T10:49:26.652Z,7.50
2023-04-22T10:51:55.804Z,7.10
2023-04-22T10:54:29.339Z,6.80
2023-04-22T10:57:14.488Z,7.80
2023-04-22T11:00:03.333Z,6.10
2023-04-22T11:02:31.495Z,5.70
2023-04-22T11:05:18.921Z,6.90
2023-04-22T11:07:50.257Z,10.00
2023-04-22T11:10:43.992Z,8.50
2023-04-22T11:13:16.688Z,7.00
2023-04-22T11:15:46.491Z,7.60
2023-04-22T11:18:20.942Z,5.50
2023-04-22T11:20:49.504Z,7.40
2023-04-22T11:23:25.703Z,6.50
2023-04-22T11:26:01.872Z,5.20
2023-04-22T11:28:30.085Z,6.60
2023-04-22T11:31:05.579Z,8.00
2023-04-22T11:33:34.737Z,6.60
2023-04-22T11:36:02.733Z,7.90
2023-04-22T11:38:30.874Z,9.60
2023-04-22T11:40:59.051Z,17.20
2023-04-22T11:43:27.853Z,6.70
2023-04-22T11:45:56.085Z,8.00
2023-04-22T11:48:24.182Z,7.00
2023-04-22T11:51:07.823Z,6.80
2023-04-22T11:53:36.034Z,7.70
2023-04-22T11:56:04.208Z,5.80
2023-04-22T11:58:32.435Z,7.30
2023-04-22T12:01:00.781Z,7.60
2023-04-22T12:03:30.411Z,8.10
2023-04-22T12:06:00.266Z,8.50
2023-04-22T12:08:36.824Z,8.50
2023-04-22T12:11:07.009Z,7.70
2023-04-22T12:13:38.253Z,7.50
2023-04-22T12:16:12.133Z,9.00
2023-04-22T12:21:25.129Z,8.00
2023-04-22T12:23:54.928Z,12.40
2023-04-22T12:26:26.690Z,17.90
2023-04-22T12:28:57.011Z,8.40
2023-04-22T12:31:25.474Z,7.30
2023-04-22T12:33:54.242Z,9.30
2023-04-22T12:36:23.499Z,8.10
2023-04-22T12:38:51.546Z,8.30
2023-04-22T12:41:19.654Z,7.40
2023-04-22T12:43:48.004Z,7.50
2023-04-22T12:46:16.634Z,5.70
2023-04-22T12:48:45.048Z,5.50
2023-04-22T12:51:13.446Z,8.90
2023-04-22T12:53:41.529Z,6.20
2023-04-22T12:56:09.516Z,7.60
2023-04-22T12:58:37.887Z,5.20
2023-04-22T13:01:06.245Z,8.00
2023-04-22T13:03:34.671Z,7.20
2023-04-22T13:06:02.712Z,14.80
2023-04-22T13:08:31.504Z,5.70
2023-04-22T13:11:00.284Z,6.10
2023-04-22T13:13:28.558Z,6.80
2023-04-22T13:15:57.208Z,4.80
2023-04-22T13:18:25.402Z,4.60
2023-04-22T13:20:56.803Z,4.80
2023-04-22T13:23:26.036Z,4.80
2023-04-22T13:25:54.259Z,5.00
2023-04-22T13:28:22.363Z,11.60
2023-04-22T13:30:50.227Z,62.50
2023-04-22T13:34:36.611Z,5.90
2023-04-22T13:37:04.657Z,9.10
2023-04-22T13:39:33.703Z,6.30
2023-04-22T13:42:01.769Z,6.80
2023-04-22T13:44:30.042Z,6.60
2023-04-22T13:46:58.643Z,4.30
2023-04-22T13:49:27.574Z,7.40
2023-04-22T13:51:55.512Z,7.80
2023-04-22T13:54:23.743Z,5.40
2023-04-22T13:56:52.071Z,4.90
2023-04-22T13:59:20.004Z,6.80
2023-04-22T14:01:48.003Z,3.20
2023-04-22T14:04:16.074Z,6.40
2023-04-22T14:06:44.307Z,4.40
2023-04-22T14:09:12.346Z,5.00
2023-04-22T14:11:40.558Z,5.60
2023-04-22T14:14:08.697Z,6.80
2023-04-22T14:16:37.238Z,3.80
2023-04-22T14:19:06.221Z,4.00
2023-04-22T14:21:34.429Z,3.40
2023-04-22T14:24:02.520Z,4.40
2023-04-22T14:26:32.785Z,6.80
2023-04-22T14:29:01.023Z,3.40
2023-04-22T14:31:29.282Z,3.60
2023-04-22T14:33:57.619Z,2.60
2023-04-22T14:36:25.731Z,3.70
2023-04-22T14:38:53.678Z,2.40
2023-04-22T14:41:21.722Z,2.80
2023-04-22T14:43:49.739Z,2.70
2023-04-22T14:46:17.787Z,3.90
2023-04-22T14:48:45.848Z,5.00
2023-04-22T14:51:13.850Z,5.90
2023-04-22T14:53:42.803Z,2.80
2023-04-22T14:56:12.164Z,3.20
2023-04-22T14:58:40.497Z,2.90
2023-04-22T15:01:08.624Z,3.10
2023-04-22T15:03:37.306Z,4.00
2023-04-22T15:06:05.740Z,2.60
2023-04-22T15:08:33.999Z,1.50
2023-04-22T15:11:02.096Z,2.10
2023-04-22T15:13:30.454Z,2.10
2023-04-22T15:15:59.191Z,3.30
2023-04-22T15:18:27.201Z,1.90
2023-04-22T15:20:55.260Z,2.00
2023-04-22T15:23:23.604Z,1.60
2023-04-22T15:25:51.664Z,3.00
2023-04-22T15:29:07.579Z,3.30
2023-04-22T15:31:36.306Z,2.20
2023-04-22T15:34:04.360Z,2.30
2023-04-22T15:36:33.285Z,2.70
2023-04-22T15:39:01.213Z,5.50
2023-04-22T15:41:29.593Z,5.20
2023-04-22T15:43:57.585Z,5.10
2023-04-22T15:46:25.751Z,5.60
2023-04-22T15:48:53.858Z,4.60
2023-04-22T15:51:21.998Z,2.80
2023-04-22T15:53:49.972Z,3.80
2023-04-22T15:56:18.076Z,6.70
2023-04-22T15:58:46.382Z,8.40
2023-04-22T16:01:19.271Z,5.80
2023-04-22T16:03:48.985Z,4.80
2023-04-22T16:06:18.096Z,2.90
2023-04-22T16:08:46.109Z,3.50
2023-04-22T16:11:14.464Z,4.70
2023-04-22T16:13:42.796Z,3.60
2023-04-22T16:16:11.226Z,9.20
2023-04-22T16:18:40.902Z,3.50
2023-04-22T16:21:10.682Z,6.40
2023-04-22T16:23:38.685Z,7.50
2023-04-22T16:26:06.853Z,8.60
2023-04-22T16:28:35.806Z,8.30
2023-04-22T16:31:03.924Z,5.70
2023-04-22T16:33:32.992Z,5.80
2023-04-22T16:36:01.104Z,5.00
2023-04-22T16:38:29.147Z,6.60
2023-04-22T16:40:57.256Z,4.80
2023-04-22T16:43:25.605Z,6.60
2023-04-22T16:45:53.553Z,5.20
2023-04-22T16:48:22.136Z,4.00
2023-04-22T16:50:51.334Z,7.00
2023-04-22T16:53:19.630Z,4.70
2023-04-22T16:55:47.784Z,4.60
2023-04-22T16:58:16.178Z,5.80
2023-04-22T17:00:45.697Z,5.20
2023-04-22T17:03:15.831Z,5.00
2023-04-22T17:05:43.918Z,7.30
2023-04-22T17:08:12.214Z,5.40
2023-04-22T17:10:45.164Z,5.50
2023-04-22T17:13:15.484Z,8.20
2023-04-22T17:15:43.434Z,6.30
2023-04-22T17:18:11.525Z,6.40
2023-04-22T17:20:39.546Z,5.10
2023-04-22T17:23:07.732Z,5.20
2023-04-22T17:25:35.918Z,6.20
2023-04-22T17:28:04.695Z,4.10
2023-04-22T17:30:32.958Z,4.30
2023-04-22T17:33:01.389Z,5.10
2023-04-22T17:35:29.734Z,6.30
2023-04-22T17:37:58.112Z,8.40
2023-04-22T17:40:26.426Z,4.90
2023-04-22T17:42:54.395Z,4.20
2023-04-22T17:45:22.410Z,4.70
2023-04-22T17:47:50.647Z,3.50
2023-04-22T17:50:18.681Z,4.90
2023-04-22T17:52:46.732Z,5.30
2023-04-22T17:55:14.660Z,4.60
2023-04-22T17:57:42.776Z,5.20
2023-04-22T18:00:11.610Z,5.00
2023-04-22T18:02:41.444Z,4.70
2023-04-22T18:05:09.910Z,7.90
2023-04-22T18:07:38.227Z,4.70
2023-04-22T18:10:07.270Z,4.70
2023-04-22T18:12:35.557Z,5.30
2023-04-22T18:15:04.975Z,5.00
2023-04-22T18:17:33.663Z,8.80
2023-04-22T18:22:33.007Z,7.40
2023-04-22T18:25:02.041Z,7.80
2023-04-22T18:27:30.362Z,8.40
2023-04-22T18:29:58.381Z,11.50
2023-04-22T18:32:26.485Z,7.00
2023-04-22T18:34:54.413Z,8.50
2023-04-22T18:37:22.764Z,7.90
2023-04-22T18:39:50.763Z,7.20
2023-04-22T18:42:18.803Z,6.60
2023-04-22T18:44:46.763Z,6.40
2023-04-22T18:47:14.710Z,4.80
2023-04-22T18:49:42.795Z,7.20
2023-04-22T18:52:10.783Z,9.50
2023-04-22T18:54:39.510Z,10.10
2023-04-22T18:57:07.873Z,12.10
2023-04-22T18:59:36.131Z,11.00
2023-04-22T19:02:05.350Z,16.50
2023-04-22T19:04:33.537Z,12.10
2023-04-22T19:07:02.007Z,15.90
2023-04-22T19:09:31.854Z,4.80
2023-04-22T19:11:59.869Z,5.70
2023-04-22T19:14:27.840Z,9.50
2023-04-22T19:16:55.833Z,11.20
2023-04-22T19:19:23.802Z,10.40
2023-04-22T19:21:51.676Z,5.70
2023-04-22T19:24:19.754Z,9.40
2023-04-22T19:26:47.745Z,8.30
2023-04-22T19:29:17.125Z,5.50
2023-04-22T19:31:45.096Z,7.00
2023-04-22T19:34:13.391Z,8.50
2023-04-22T19:36:41.410Z,6.00
2023-04-22T19:39:09.884Z,4.90
2023-04-22T19:41:38.223Z,5.60
2023-04-22T19:44:06.452Z,7.80
2023-04-22T19:46:35.030Z,5.50
2023-04-22T19:49:03.628Z,9.40
2023-04-22T19:51:31.841Z,8.00
2023-04-22T19:53:59.697Z,8.70
2023-04-22T19:56:28.228Z,16.30
2023-04-22T19:58:56.262Z,17.00
2023-04-22T20:01:25.106Z,20.10
2023-04-22T20:03:53.776Z,17.70
2023-04-22T20:06:22.741Z,14.30
2023-04-22T20:08:54.925Z,13.70
2023-04-22T20:11:25.925Z,11.80
2023-04-22T20:13:54.118Z,9.30
2023-04-22T20:16:27.112Z,10.30
2023-04-22T20:18:55.473Z,10.80
2023-04-22T20:21:23.845Z,12.40
2023-04-22T20:23:51.834Z,13.60
2023-04-22T20:26:20.194Z,15.10
2023-04-22T20:28:49.912Z,13.80
2023-04-22T20:31:23.209Z,12.00
2023-04-22T20:33:52.142Z,15.10
2023-04-22T20:36:20.557Z,14.90
2023-04-22T20:38:49.325Z,12.00
2023-04-22T20:41:20.878Z,14.90
2023-04-22T20:43:49.163Z,11.80
2023-04-22T20:46:17.652Z,15.10
2023-04-22T20:48:46.314Z,15.50
2023-04-22T20:51:14.672Z,16.60
2023-04-22T20:53:42.784Z,18.80
2023-04-22T20:56:10.993Z,17.60
2023-04-22T20:58:38.951Z,22.00
2023-04-22T21:01:08.861Z,20.10
2023-04-22T21:03:37.492Z,16.30
2023-04-22T21:06:06.544Z,26.20
2023-04-22T21:08:34.816Z,22.60
2023-04-22T21:11:03.274Z,18.00
2023-04-22T21:13:31.600Z,18.00
2023-04-22T21:16:04.493Z,21.10
2023-04-22T21:18:33.169Z,13.70
2023-04-22T21:21:04.225Z,13.40
2023-04-22T21:23:32.727Z,17.80
2023-04-22T21:26:01.702Z,15.50
2023-04-22T21:28:30.421Z,21.60
2023-04-22T21:30:59.090Z,20.10
2023-04-22T21:33:27.069Z,18.10
2023-04-22T21:35:55.586Z,20.40
2023-04-22T21:38:23.562Z,21.60
2023-04-22T21:40:51.449Z,15.80
2023-04-22T21:43:19.591Z,17.10
2023-04-22T21:45:47.542Z,19.90
2023-04-22T21:48:15.700Z,26.30
2023-04-22T21:50:44.088Z,16.30
2023-04-22T21:53:12.288Z,18.50
2023-04-22T21:55:40.469Z,16.70
2023-04-22T21:58:08.686Z,15.70
2023-04-22T22:00:37.855Z,23.80
2023-04-22T22:03:06.364Z,32.30
2023-04-22T22:05:34.488Z,18.80
2023-04-22T22:08:02.726Z,21.70
2023-04-22T22:10:30.756Z,15.10
2023-04-22T22:12:58.788Z,18.10
2023-04-22T22:15:26.747Z,15.20
2023-04-22T22:17:54.799Z,17.10
2023-04-22T22:20:22.778Z,17.00
2023-04-22T22:22:50.797Z,18.40
2023-04-22T22:25:18.693Z,12.70
2023-04-22T22:27:49.659Z,18.80
2023-04-22T22:30:18.814Z,15.50
2023-04-22T22:32:47.567Z,18.00
2023-04-22T22:35:16.519Z,15.30
2023-04-22T22:37:45.024Z,14.30
2023-04-22T22:40:12.970Z,12.90
2023-04-22T22:42:41.212Z,18.50
2023-04-22T22:45:10.687Z,17.40
2023-04-22T22:47:38.988Z,17.90
2023-04-22T22:50:08.021Z,19.10
2023-04-22T22:52:36.366Z,15.00
2023-04-22T22:55:04.973Z,13.60
2023-04-22T22:57:32.928Z,16.10
2023-04-22T23:00:00.996Z,13.40
2023-04-22T23:02:29.207Z,16.80
2023-04-22T23:04:57.265Z,15.70
2023-04-22T23:07:25.969Z,17.00
2023-04-22T23:09:53.920Z,18.70
2023-04-22T23:12:21.963Z,13.40
2023-04-22T23:14:50.063Z,16.60
2023-04-22T23:17:18.112Z,14.60
2023-04-22T23:19:46.035Z,14.00
2023-04-22T23:22:14.060Z,19.80
2023-04-22T23:24:42.606Z,13.20
2023-04-22T23:27:11.473Z,19.50
2023-04-22T23:29:40.019Z,12.20
2023-04-22T23:32:09.096Z,20.30
2023-04-22T23:34:37.204Z,15.00
2023-04-22T23:37:08.353Z,15.30
2023-04-22T23:39:36.384Z,13.50
2023-04-22T23:42:04.556Z,13.70
2023-04-22T23:44:32.478Z,13.30
2023-04-22T23:47:00.592Z,13.00
2023-04-22T23:49:29.005Z,15.60
2023-04-22T23:51:57.052Z,12.40
2023-04-22T23:54:25.753Z,11.80
2023-04-22T23:56:54.349Z,13.90
2023-04-22T23:59:23.047Z,11.50
